sensor_id;sensor_type;location;lat;lon;timestamp;P1;durP1;ratioP1;P2;durP2;ratioP2
25721;SDS011;13578;53.450;15.496;2023-04-06T00:00:34;10.43;;;6.30;;
25721;SDS011;13578;53.450;15.496;2023-04-06T00:03:34;10.70;;;6.43;;
25721;SDS011;13578;53.450;15.496;2023-04-06T00:06:35;9.73;;;6.88;;
25721;SDS011;13578;53.450;15.496;2023-04-06T00:09:36;6.95;;;6.25;;
25721;SDS011;13578;53.450;15.496;2023-04-06T00:12:36;10.13;;;6.18;;
25721;SDS011;13578;53.450;15.496;2023-04-06T00:15:37;11.32;;;6.65;;
25721;SDS011;13578;53.450;15.496;2023-04-06T00:18:38;10.55;;;6.72;;
25721;SDS011;13578;53.450;15.496;2023-04-06T00:21:39;12.20;;;7.60;;
25721;SDS011;13578;53.450;15.496;2023-04-06T00:24:39;10.70;;;6.97;;
25721;SDS011;13578;53.450;15.496;2023-04-06T00:27:40;9.10;;;6.40;;
25721;SDS011;13578;53.450;15.496;2023-04-06T00:30:41;11.60;;;8.10;;
25721;SDS011;13578;53.450;15.496;2023-04-06T00:33:41;15.95;;;8.57;;
25721;SDS011;13578;53.450;15.496;2023-04-06T00:36:42;9.10;;;7.30;;
25721;SDS011;13578;53.450;15.496;2023-04-06T00:39:43;16.35;;;7.60;;
25721;SDS011;13578;53.450;15.496;2023-04-06T00:42:43;12.32;;;7.50;;
25721;SDS011;13578;53.450;15.496;2023-04-06T00:45:44;14.68;;;7.53;;
25721;SDS011;13578;53.450;15.496;2023-04-06T00:48:45;13.98;;;6.95;;
25721;SDS011;13578;53.450;15.496;2023-04-06T00:51:45;15.60;;;7.82;;
25721;SDS011;13578;53.450;15.496;2023-04-06T00:54:46;10.15;;;8.77;;
25721;SDS011;13578;53.450;15.496;2023-04-06T00:57:47;10.90;;;7.13;;
25721;SDS011;13578;53.450;15.496;2023-04-06T01:00:48;11.05;;;7.47;;
25721;SDS011;13578;53.450;15.496;2023-04-06T01:03:49;15.52;;;7.65;;
25721;SDS011;13578;53.450;15.496;2023-04-06T01:06:50;13.60;;;7.47;;
25721;SDS011;13578;53.450;15.496;2023-04-06T01:09:53;10.02;;;7.40;;
25721;SDS011;13578;53.450;15.496;2023-04-06T01:12:56;11.68;;;7.45;;
25721;SDS011;13578;53.450;15.496;2023-04-06T01:15:57;16.30;;;7.63;;
25721;SDS011;13578;53.450;15.496;2023-04-06T01:18:58;19.90;;;8.57;;
25721;SDS011;13578;53.450;15.496;2023-04-06T01:21:58;13.45;;;7.18;;
25721;SDS011;13578;53.450;15.496;2023-04-06T01:24:59;10.40;;;8.40;;
25721;SDS011;13578;53.450;15.496;2023-04-06T01:28:00;10.43;;;7.20;;
25721;SDS011;13578;53.450;15.496;2023-04-06T01:31:00;12.60;;;8.43;;
25721;SDS011;13578;53.450;15.496;2023-04-06T01:34:01;12.30;;;8.52;;
25721;SDS011;13578;53.450;15.496;2023-04-06T01:37:01;14.18;;;7.82;;
25721;SDS011;13578;53.450;15.496;2023-04-06T01:40:02;11.93;;;7.40;;
25721;SDS011;13578;53.450;15.496;2023-04-06T01:43:03;12.25;;;7.50;;
25721;SDS011;13578;53.450;15.496;2023-04-06T01:46:04;13.27;;;8.23;;
25721;SDS011;13578;53.450;15.496;2023-04-06T01:49:05;14.52;;;7.95;;
25721;SDS011;13578;53.450;15.496;2023-04-06T01:52:06;16.00;;;8.48;;
25721;SDS011;13578;53.450;15.496;2023-04-06T01:55:06;14.50;;;8.02;;
25721;SDS011;13578;53.450;15.496;2023-04-06T01:58:07;9.18;;;7.90;;
25721;SDS011;13578;53.450;15.496;2023-04-06T02:01:08;12.20;;;7.88;;
25721;SDS011;13578;53.450;15.496;2023-04-06T02:04:08;15.45;;;7.25;;
25721;SDS011;13578;53.450;15.496;2023-04-06T02:07:09;10.82;;;8.02;;
25721;SDS011;13578;53.450;15.496;2023-04-06T02:10:13;9.57;;;7.85;;
25721;SDS011;13578;53.450;15.496;2023-04-06T02:13:14;14.00;;;8.48;;
25721;SDS011;13578;53.450;15.496;2023-04-06T02:16:15;9.50;;;8.13;;
25721;SDS011;13578;53.450;15.496;2023-04-06T02:19:16;15.40;;;7.72;;
25721;SDS011;13578;53.450;15.496;2023-04-06T02:22:16;13.10;;;9.02;;
25721;SDS011;13578;53.450;15.496;2023-04-06T02:25:17;17.67;;;8.20;;
25721;SDS011;13578;53.450;15.496;2023-04-06T02:28:18;9.98;;;7.68;;
25721;SDS011;13578;53.450;15.496;2023-04-06T02:31:18;17.80;;;8.32;;
25721;SDS011;13578;53.450;15.496;2023-04-06T02:34:19;9.98;;;7.97;;
25721;SDS011;13578;53.450;15.496;2023-04-06T02:37:20;16.70;;;7.68;;
25721;SDS011;13578;53.450;15.496;2023-04-06T02:40:20;13.55;;;8.52;;
25721;SDS011;13578;53.450;15.496;2023-04-06T02:43:21;14.52;;;8.52;;
25721;SDS011;13578;53.450;15.496;2023-04-06T02:46:22;13.23;;;8.40;;
25721;SDS011;13578;53.450;15.496;2023-04-06T02:49:22;14.25;;;9.05;;
25721;SDS011;13578;53.450;15.496;2023-04-06T02:52:23;13.32;;;9.18;;
25721;SDS011;13578;53.450;15.496;2023-04-06T02:55:24;16.75;;;9.38;;
25721;SDS011;13578;53.450;15.496;2023-04-06T02:58:24;18.35;;;9.00;;
25721;SDS011;13578;53.450;15.496;2023-04-06T03:01:25;12.20;;;8.77;;
25721;SDS011;13578;53.450;15.496;2023-04-06T03:04:26;14.18;;;8.50;;
25721;SDS011;13578;53.450;15.496;2023-04-06T03:07:27;20.55;;;9.05;;
25721;SDS011;13578;53.450;15.496;2023-04-06T03:10:27;22.50;;;9.10;;
25721;SDS011;13578;53.450;15.496;2023-04-06T03:13:28;23.50;;;9.40;;
25721;SDS011;13578;53.450;15.496;2023-04-06T03:16:28;16.90;;;9.60;;
25721;SDS011;13578;53.450;15.496;2023-04-06T03:19:29;12.73;;;8.32;;
25721;SDS011;13578;53.450;15.496;2023-04-06T03:22:30;16.08;;;8.73;;
25721;SDS011;13578;53.450;15.496;2023-04-06T03:25:30;18.98;;;9.95;;
25721;SDS011;13578;53.450;15.496;2023-04-06T03:28:31;22.00;;;9.48;;
25721;SDS011;13578;53.450;15.496;2023-04-06T03:31:32;19.13;;;9.50;;
25721;SDS011;13578;53.450;15.496;2023-04-06T03:34:32;15.27;;;8.70;;
25721;SDS011;13578;53.450;15.496;2023-04-06T03:37:33;13.25;;;8.80;;
25721;SDS011;13578;53.450;15.496;2023-04-06T03:40:33;15.70;;;9.88;;
25721;SDS011;13578;53.450;15.496;2023-04-06T03:43:34;16.33;;;9.98;;
25721;SDS011;13578;53.450;15.496;2023-04-06T03:46:35;16.10;;;9.52;;
25721;SDS011;13578;53.450;15.496;2023-04-06T03:49:36;20.80;;;9.43;;
25721;SDS011;13578;53.450;15.496;2023-04-06T03:52:36;19.83;;;10.60;;
25721;SDS011;13578;53.450;15.496;2023-04-06T03:55:37;18.05;;;9.65;;
25721;SDS011;13578;53.450;15.496;2023-04-06T03:58:38;15.13;;;9.43;;
25721;SDS011;13578;53.450;15.496;2023-04-06T04:01:38;16.67;;;11.10;;
25721;SDS011;13578;53.450;15.496;2023-04-06T04:04:39;20.23;;;10.23;;
25721;SDS011;13578;53.450;15.496;2023-04-06T04:07:40;16.42;;;10.25;;
25721;SDS011;13578;53.450;15.496;2023-04-06T04:10:40;17.83;;;10.13;;
25721;SDS011;13578;53.450;15.496;2023-04-06T04:13:41;25.85;;;9.60;;
25721;SDS011;13578;53.450;15.496;2023-04-06T04:16:42;17.95;;;10.38;;
25721;SDS011;13578;53.450;15.496;2023-04-06T04:19:42;15.70;;;9.27;;
25721;SDS011;13578;53.450;15.496;2023-04-06T04:22:43;23.80;;;11.50;;
25721;SDS011;13578;53.450;15.496;2023-04-06T04:25:44;18.77;;;10.25;;
25721;SDS011;13578;53.450;15.496;2023-04-06T04:28:44;22.63;;;11.32;;
25721;SDS011;13578;53.450;15.496;2023-04-06T04:31:45;14.90;;;9.80;;
25721;SDS011;13578;53.450;15.496;2023-04-06T04:34:46;16.80;;;9.75;;
25721;SDS011;13578;53.450;15.496;2023-04-06T04:37:46;14.82;;;10.43;;
25721;SDS011;13578;53.450;15.496;2023-04-06T04:40:47;15.48;;;9.45;;
25721;SDS011;13578;53.450;15.496;2023-04-06T04:43:48;18.42;;;9.63;;
25721;SDS011;13578;53.450;15.496;2023-04-06T04:46:48;19.33;;;9.70;;
25721;SDS011;13578;53.450;15.496;2023-04-06T04:49:49;17.05;;;10.73;;
25721;SDS011;13578;53.450;15.496;2023-04-06T04:52:49;16.77;;;10.25;;
25721;SDS011;13578;53.450;15.496;2023-04-06T04:55:50;18.83;;;10.38;;
25721;SDS011;13578;53.450;15.496;2023-04-06T04:58:51;17.48;;;10.75;;
25721;SDS011;13578;53.450;15.496;2023-04-06T05:01:52;22.88;;;10.40;;
25721;SDS011;13578;53.450;15.496;2023-04-06T05:04:52;17.80;;;10.05;;
25721;SDS011;13578;53.450;15.496;2023-04-06T05:07:53;15.52;;;9.15;;
25721;SDS011;13578;53.450;15.496;2023-04-06T05:10:53;18.02;;;10.93;;
25721;SDS011;13578;53.450;15.496;2023-04-06T05:13:54;21.23;;;10.23;;
25721;SDS011;13578;53.450;15.496;2023-04-06T05:16:55;18.42;;;9.60;;
25721;SDS011;13578;53.450;15.496;2023-04-06T05:19:55;19.90;;;11.00;;
25721;SDS011;13578;53.450;15.496;2023-04-06T05:22:56;16.15;;;10.35;;
25721;SDS011;13578;53.450;15.496;2023-04-06T05:25:56;16.75;;;10.40;;
25721;SDS011;13578;53.450;15.496;2023-04-06T05:28:57;27.23;;;11.57;;
25721;SDS011;13578;53.450;15.496;2023-04-06T05:31:58;15.25;;;8.95;;
25721;SDS011;13578;53.450;15.496;2023-04-06T05:34:59;19.50;;;10.50;;
25721;SDS011;13578;53.450;15.496;2023-04-06T05:37:59;15.52;;;9.43;;
25721;SDS011;13578;53.450;15.496;2023-04-06T05:41:00;17.67;;;9.40;;
25721;SDS011;13578;53.450;15.496;2023-04-06T05:44:01;22.13;;;10.70;;
25721;SDS011;13578;53.450;15.496;2023-04-06T05:47:01;19.35;;;9.88;;
25721;SDS011;13578;53.450;15.496;2023-04-06T05:50:02;18.40;;;10.65;;
25721;SDS011;13578;53.450;15.496;2023-04-06T05:53:03;17.75;;;9.48;;
25721;SDS011;13578;53.450;15.496;2023-04-06T05:56:04;17.50;;;9.15;;
25721;SDS011;13578;53.450;15.496;2023-04-06T05:59:05;18.30;;;10.80;;
25721;SDS011;13578;53.450;15.496;2023-04-06T06:02:05;21.80;;;10.05;;
25721;SDS011;13578;53.450;15.496;2023-04-06T06:05:06;20.58;;;10.80;;
25721;SDS011;13578;53.450;15.496;2023-04-06T06:08:07;22.60;;;9.60;;
25721;SDS011;13578;53.450;15.496;2023-04-06T06:11:08;24.65;;;10.88;;
25721;SDS011;13578;53.450;15.496;2023-04-06T06:14:08;16.77;;;10.70;;
25721;SDS011;13578;53.450;15.496;2023-04-06T06:17:09;16.70;;;9.48;;
25721;SDS011;13578;53.450;15.496;2023-04-06T06:20:10;17.08;;;10.18;;
25721;SDS011;13578;53.450;15.496;2023-04-06T06:23:11;20.02;;;11.10;;
25721;SDS011;13578;53.450;15.496;2023-04-06T06:26:11;26.08;;;11.15;;
25721;SDS011;13578;53.450;15.496;2023-04-06T06:29:12;21.55;;;10.27;;
25721;SDS011;13578;53.450;15.496;2023-04-06T06:32:13;19.88;;;9.75;;
25721;SDS011;13578;53.450;15.496;2023-04-06T06:35:14;19.73;;;9.77;;
25721;SDS011;13578;53.450;15.496;2023-04-06T06:38:15;22.73;;;9.32;;
25721;SDS011;13578;53.450;15.496;2023-04-06T06:41:16;15.80;;;8.88;;
25721;SDS011;13578;53.450;15.496;2023-04-06T06:44:16;16.98;;;9.60;;
25721;SDS011;13578;53.450;15.496;2023-04-06T06:47:17;16.65;;;9.30;;
25721;SDS011;13578;53.450;15.496;2023-04-06T06:50:17;19.92;;;9.18;;
25721;SDS011;13578;53.450;15.496;2023-04-06T06:53:19;12.30;;;7.93;;
25721;SDS011;13578;53.450;15.496;2023-04-06T06:56:20;17.48;;;8.85;;
25721;SDS011;13578;53.450;15.496;2023-04-06T06:59:20;18.30;;;8.43;;
25721;SDS011;13578;53.450;15.496;2023-04-06T07:02:21;23.70;;;8.15;;
25721;SDS011;13578;53.450;15.496;2023-04-06T07:05:22;15.23;;;8.05;;
25721;SDS011;13578;53.450;15.496;2023-04-06T07:08:23;11.45;;;7.60;;
25721;SDS011;13578;53.450;15.496;2023-04-06T07:11:24;14.70;;;8.93;;
25721;SDS011;13578;53.450;15.496;2023-04-06T07:14:25;13.70;;;8.00;;
25721;SDS011;13578;53.450;15.496;2023-04-06T07:17:26;19.52;;;8.18;;
25721;SDS011;13578;53.450;15.496;2023-04-06T07:20:27;15.48;;;8.45;;
25721;SDS011;13578;53.450;15.496;2023-04-06T07:23:28;15.27;;;8.23;;
25721;SDS011;13578;53.450;15.496;2023-04-06T07:26:28;17.95;;;7.95;;
25721;SDS011;13578;53.450;15.496;2023-04-06T07:29:29;15.32;;;7.53;;
25721;SDS011;13578;53.450;15.496;2023-04-06T07:32:29;17.55;;;8.70;;
25721;SDS011;13578;53.450;15.496;2023-04-06T07:35:30;17.25;;;8.38;;
25721;SDS011;13578;53.450;15.496;2023-04-06T07:38:31;16.52;;;7.28;;
25721;SDS011;13578;53.450;15.496;2023-04-06T07:41:32;13.68;;;8.52;;
25721;SDS011;13578;53.450;15.496;2023-04-06T07:44:32;12.23;;;7.35;;
25721;SDS011;13578;53.450;15.496;2023-04-06T07:47:33;13.30;;;7.57;;
25721;SDS011;13578;53.450;15.496;2023-04-06T07:50:34;15.27;;;7.80;;
25721;SDS011;13578;53.450;15.496;2023-04-06T07:53:35;12.63;;;6.75;;
25721;SDS011;13578;53.450;15.496;2023-04-06T07:56:35;10.25;;;6.43;;
25721;SDS011;13578;53.450;15.496;2023-04-06T07:59:36;13.02;;;7.75;;
25721;SDS011;13578;53.450;15.496;2023-04-06T08:02:37;10.13;;;6.25;;
25721;SDS011;13578;53.450;15.496;2023-04-06T08:05:37;13.30;;;7.30;;
25721;SDS011;13578;53.450;15.496;2023-04-06T08:08:38;13.00;;;7.15;;
25721;SDS011;13578;53.450;15.496;2023-04-06T08:11:39;12.60;;;6.90;;
25721;SDS011;13578;53.450;15.496;2023-04-06T08:14:40;20.27;;;6.38;;
25721;SDS011;13578;53.450;15.496;2023-04-06T08:17:41;10.82;;;5.85;;
25721;SDS011;13578;53.450;15.496;2023-04-06T08:20:41;11.88;;;5.88;;
25721;SDS011;13578;53.450;15.496;2023-04-06T08:23:42;10.07;;;5.80;;
25721;SDS011;13578;53.450;15.496;2023-04-06T08:26:43;9.35;;;5.15;;
25721;SDS011;13578;53.450;15.496;2023-04-06T08:29:43;9.85;;;5.20;;
25721;SDS011;13578;53.450;15.496;2023-04-06T08:32:44;9.45;;;5.20;;
25721;SDS011;13578;53.450;15.496;2023-04-06T08:35:45;10.75;;;6.22;;
25721;SDS011;13578;53.450;15.496;2023-04-06T08:38:46;11.70;;;5.28;;
25721;SDS011;13578;53.450;15.496;2023-04-06T08:41:46;12.48;;;5.30;;
25721;SDS011;13578;53.450;15.496;2023-04-06T08:44:48;15.80;;;6.60;;
25721;SDS011;13578;53.450;15.496;2023-04-06T08:47:51;15.52;;;5.40;;
25721;SDS011;13578;53.450;15.496;2023-04-06T08:50:52;9.20;;;5.22;;
25721;SDS011;13578;53.450;15.496;2023-04-06T08:53:55;12.60;;;5.95;;
25721;SDS011;13578;53.450;15.496;2023-04-06T08:56:57;10.73;;;5.00;;
25721;SDS011;13578;53.450;15.496;2023-04-06T08:59:58;13.88;;;4.65;;
25721;SDS011;13578;53.450;15.496;2023-04-06T09:03:01;8.13;;;4.45;;
25721;SDS011;13578;53.450;15.496;2023-04-06T09:06:03;8.23;;;4.45;;
25721;SDS011;13578;53.450;15.496;2023-04-06T09:09:04;11.45;;;5.13;;
25721;SDS011;13578;53.450;15.496;2023-04-06T09:12:05;8.32;;;4.40;;
25721;SDS011;13578;53.450;15.496;2023-04-06T09:15:06;11.25;;;5.10;;
25721;SDS011;13578;53.450;15.496;2023-04-06T09:18:27;9.57;;;5.07;;
25721;SDS011;13578;53.450;15.496;2023-04-06T09:21:32;7.18;;;4.85;;
25721;SDS011;13578;53.450;15.496;2023-04-06T09:24:42;11.43;;;5.13;;
25721;SDS011;13578;53.450;15.496;2023-04-06T09:27:46;10.65;;;4.57;;
25721;SDS011;13578;53.450;15.496;2023-04-06T09:30:48;7.40;;;5.20;;
25721;SDS011;13578;53.450;15.496;2023-04-06T09:33:49;7.80;;;5.03;;
25721;SDS011;13578;53.450;15.496;2023-04-06T09:36:52;15.30;;;5.15;;
25721;SDS011;13578;53.450;15.496;2023-04-06T09:40:01;8.27;;;5.20;;
25721;SDS011;13578;53.450;15.496;2023-04-06T09:43:07;7.00;;;4.72;;
25721;SDS011;13578;53.450;15.496;2023-04-06T09:46:09;7.85;;;4.43;;
25721;SDS011;13578;53.450;15.496;2023-04-06T09:49:11;7.50;;;4.32;;
25721;SDS011;13578;53.450;15.496;2023-04-06T09:52:12;25.95;;;4.85;;
25721;SDS011;13578;53.450;15.496;2023-04-06T09:55:17;9.27;;;4.88;;
25721;SDS011;13578;53.450;15.496;2023-04-06T09:58:23;6.97;;;3.95;;
25721;SDS011;13578;53.450;15.496;2023-04-06T10:01:26;7.28;;;4.13;;
25721;SDS011;13578;53.450;15.496;2023-04-06T10:04:41;7.22;;;4.43;;
25721;SDS011;13578;53.450;15.496;2023-04-06T10:07:42;8.00;;;4.60;;
25721;SDS011;13578;53.450;15.496;2023-04-06T10:10:44;14.52;;;4.55;;
25721;SDS011;13578;53.450;15.496;2023-04-06T10:13:45;9.57;;;4.50;;
25721;SDS011;13578;53.450;15.496;2023-04-06T10:16:48;8.25;;;4.07;;
25721;SDS011;13578;53.450;15.496;2023-04-06T10:19:54;7.82;;;4.13;;
25721;SDS011;13578;53.450;15.496;2023-04-06T10:26:19;5.90;;;3.65;;
25721;SDS011;13578;53.450;15.496;2023-04-06T10:29:21;6.53;;;3.50;;
25721;SDS011;13578;53.450;15.496;2023-04-06T10:32:31;4.95;;;3.13;;
25721;SDS011;13578;53.450;15.496;2023-04-06T10:35:37;4.25;;;3.03;;
25721;SDS011;13578;53.450;15.496;2023-04-06T10:38:39;5.50;;;2.97;;
25721;SDS011;13578;53.450;15.496;2023-04-06T10:41:41;5.28;;;3.25;;
25721;SDS011;13578;53.450;15.496;2023-04-06T10:44:43;7.88;;;3.92;;
25721;SDS011;13578;53.450;15.496;2023-04-06T10:47:47;5.97;;;3.75;;
25721;SDS011;13578;53.450;15.496;2023-04-06T10:50:48;9.02;;;3.40;;
25721;SDS011;13578;53.450;15.496;2023-04-06T10:53:50;7.50;;;4.15;;
25721;SDS011;13578;53.450;15.496;2023-04-06T10:56:54;6.43;;;3.83;;
25721;SDS011;13578;53.450;15.496;2023-04-06T10:59:56;9.50;;;3.65;;
25721;SDS011;13578;53.450;15.496;2023-04-06T11:02:59;4.80;;;3.10;;
25721;SDS011;13578;53.450;15.496;2023-04-06T11:06:01;5.72;;;3.05;;
25721;SDS011;13578;53.450;15.496;2023-04-06T11:09:01;4.65;;;3.20;;
25721;SDS011;13578;53.450;15.496;2023-04-06T11:12:02;11.75;;;3.60;;
25721;SDS011;13578;53.450;15.496;2023-04-06T11:15:03;5.70;;;3.53;;
25721;SDS011;13578;53.450;15.496;2023-04-06T11:18:04;5.25;;;3.20;;
25721;SDS011;13578;53.450;15.496;2023-04-06T11:21:05;7.00;;;3.00;;
25721;SDS011;13578;53.450;15.496;2023-04-06T11:24:09;5.68;;;3.92;;
25721;SDS011;13578;53.450;15.496;2023-04-06T11:27:11;7.28;;;3.35;;
25721;SDS011;13578;53.450;15.496;2023-04-06T11:30:15;8.60;;;3.72;;
25721;SDS011;13578;53.450;15.496;2023-04-06T11:33:21;6.07;;;3.55;;
25721;SDS011;13578;53.450;15.496;2023-04-06T11:36:22;8.50;;;3.75;;
25721;SDS011;13578;53.450;15.496;2023-04-06T11:39:23;7.25;;;3.38;;
25721;SDS011;13578;53.450;15.496;2023-04-06T11:42:27;7.03;;;3.28;;
25721;SDS011;13578;53.450;15.496;2023-04-06T11:45:38;18.38;;;4.38;;
25721;SDS011;13578;53.450;15.496;2023-04-06T11:48:45;7.10;;;3.35;;
25721;SDS011;13578;53.450;15.496;2023-04-06T11:51:46;8.32;;;4.15;;
25721;SDS011;13578;53.450;15.496;2023-04-06T11:54:47;7.25;;;3.78;;
25721;SDS011;13578;53.450;15.496;2023-04-06T11:57:49;5.88;;;3.75;;
25721;SDS011;13578;53.450;15.496;2023-04-06T12:00:51;7.18;;;4.30;;
25721;SDS011;13578;53.450;15.496;2023-04-06T12:03:52;10.13;;;3.88;;
25721;SDS011;13578;53.450;15.496;2023-04-06T12:06:53;8.70;;;3.85;;
25721;SDS011;13578;53.450;15.496;2023-04-06T12:09:54;8.88;;;4.60;;
25721;SDS011;13578;53.450;15.496;2023-04-06T12:12:56;5.88;;;3.60;;
25721;SDS011;13578;53.450;15.496;2023-04-06T12:15:56;6.68;;;3.42;;
25721;SDS011;13578;53.450;15.496;2023-04-06T12:18:57;6.47;;;3.60;;
25721;SDS011;13578;53.450;15.496;2023-04-06T12:21:57;7.75;;;3.67;;
25721;SDS011;13578;53.450;15.496;2023-04-06T12:24:58;7.80;;;4.00;;
25721;SDS011;13578;53.450;15.496;2023-04-06T12:27:59;8.82;;;3.10;;
25721;SDS011;13578;53.450;15.496;2023-04-06T12:31:00;5.68;;;3.20;;
25721;SDS011;13578;53.450;15.496;2023-04-06T12:34:01;4.75;;;2.95;;
25721;SDS011;13578;53.450;15.496;2023-04-06T12:37:03;5.50;;;3.10;;
25721;SDS011;13578;53.450;15.496;2023-04-06T12:40:04;5.90;;;3.17;;
25721;SDS011;13578;53.450;15.496;2023-04-06T12:43:05;5.72;;;3.08;;
25721;SDS011;13578;53.450;15.496;2023-04-06T12:46:06;7.00;;;3.47;;
25721;SDS011;13578;53.450;15.496;2023-04-06T12:49:06;5.85;;;3.10;;
25721;SDS011;13578;53.450;15.496;2023-04-06T12:52:07;5.25;;;3.38;;
25721;SDS011;13578;53.450;15.496;2023-04-06T12:55:08;5.57;;;3.40;;
25721;SDS011;13578;53.450;15.496;2023-04-06T12:58:09;8.77;;;3.67;;
25721;SDS011;13578;53.450;15.496;2023-04-06T13:01:10;4.75;;;3.17;;
25721;SDS011;13578;53.450;15.496;2023-04-06T13:04:12;5.60;;;3.28;;
25721;SDS011;13578;53.450;15.496;2023-04-06T13:07:13;5.43;;;3.60;;
25721;SDS011;13578;53.450;15.496;2023-04-06T13:10:14;9.77;;;3.97;;
25721;SDS011;13578;53.450;15.496;2023-04-06T13:13:15;6.25;;;3.50;;
25721;SDS011;13578;53.450;15.496;2023-04-06T13:16:16;5.35;;;3.53;;
25721;SDS011;13578;53.450;15.496;2023-04-06T13:19:16;4.57;;;2.80;;
25721;SDS011;13578;53.450;15.496;2023-04-06T13:22:18;7.38;;;2.83;;
25721;SDS011;13578;53.450;15.496;2023-04-06T13:25:18;4.35;;;2.70;;
25721;SDS011;13578;53.450;15.496;2023-04-06T13:28:20;5.00;;;2.90;;
25721;SDS011;13578;53.450;15.496;2023-04-06T13:31:21;5.75;;;2.90;;
25721;SDS011;13578;53.450;15.496;2023-04-06T13:34:21;5.32;;;3.15;;
25721;SDS011;13578;53.450;15.496;2023-04-06T13:37:22;7.82;;;3.33;;
25721;SDS011;13578;53.450;15.496;2023-04-06T13:40:22;6.97;;;3.45;;
25721;SDS011;13578;53.450;15.496;2023-04-06T13:43:23;3.40;;;2.50;;
25721;SDS011;13578;53.450;15.496;2023-04-06T13:46:26;5.03;;;2.60;;
25721;SDS011;13578;53.450;15.496;2023-04-06T13:49:27;6.55;;;3.22;;
25721;SDS011;13578;53.450;15.496;2023-04-06T13:52:28;4.68;;;3.33;;
25721;SDS011;13578;53.450;15.496;2023-04-06T13:55:28;4.80;;;3.35;;
25721;SDS011;13578;53.450;15.496;2023-04-06T13:58:31;5.68;;;3.75;;
25721;SDS011;13578;53.450;15.496;2023-04-06T14:01:31;8.55;;;3.47;;
25721;SDS011;13578;53.450;15.496;2023-04-06T14:04:32;7.20;;;3.33;;
25721;SDS011;13578;53.450;15.496;2023-04-06T14:07:33;6.80;;;3.50;;
25721;SDS011;13578;53.450;15.496;2023-04-06T14:10:38;5.88;;;3.20;;
25721;SDS011;13578;53.450;15.496;2023-04-06T14:13:40;5.53;;;3.55;;
25721;SDS011;13578;53.450;15.496;2023-04-06T14:16:41;9.20;;;3.47;;
25721;SDS011;13578;53.450;15.496;2023-04-06T14:19:46;6.88;;;3.33;;
25721;SDS011;13578;53.450;15.496;2023-04-06T14:22:47;4.55;;;2.97;;
25721;SDS011;13578;53.450;15.496;2023-04-06T14:25:49;5.43;;;3.00;;
25721;SDS011;13578;53.450;15.496;2023-04-06T14:28:50;9.25;;;2.72;;
25721;SDS011;13578;53.450;15.496;2023-04-06T14:31:51;5.95;;;3.17;;
25721;SDS011;13578;53.450;15.496;2023-04-06T14:34:52;8.18;;;3.08;;
25721;SDS011;13578;53.450;15.496;2023-04-06T14:37:53;5.90;;;3.20;;
25721;SDS011;13578;53.450;15.496;2023-04-06T14:40:53;5.15;;;3.13;;
25721;SDS011;13578;53.450;15.496;2023-04-06T14:43:55;5.60;;;3.28;;
25721;SDS011;13578;53.450;15.496;2023-04-06T14:46:56;9.30;;;4.10;;
25721;SDS011;13578;53.450;15.496;2023-04-06T14:49:56;6.13;;;3.60;;
25721;SDS011;13578;53.450;15.496;2023-04-06T14:52:57;9.77;;;3.63;;
25721;SDS011;13578;53.450;15.496;2023-04-06T14:55:58;7.82;;;3.58;;
25721;SDS011;13578;53.450;15.496;2023-04-06T14:58:59;5.25;;;3.13;;
25721;SDS011;13578;53.450;15.496;2023-04-06T15:02:01;9.35;;;3.97;;
25721;SDS011;13578;53.450;15.496;2023-04-06T15:05:03;5.45;;;3.72;;
25721;SDS011;13578;53.450;15.496;2023-04-06T15:08:05;7.70;;;3.67;;
25721;SDS011;13578;53.450;15.496;2023-04-06T15:11:06;8.52;;;3.45;;
25721;SDS011;13578;53.450;15.496;2023-04-06T15:14:06;12.60;;;3.33;;
25721;SDS011;13578;53.450;15.496;2023-04-06T15:17:07;3.72;;;3.28;;
25721;SDS011;13578;53.450;15.496;2023-04-06T15:20:08;4.22;;;3.45;;
25721;SDS011;13578;53.450;15.496;2023-04-06T15:23:08;5.80;;;3.80;;
25721;SDS011;13578;53.450;15.496;2023-04-06T15:26:09;8.68;;;3.78;;
25721;SDS011;13578;53.450;15.496;2023-04-06T15:29:10;9.50;;;3.83;;
25721;SDS011;13578;53.450;15.496;2023-04-06T15:32:10;5.47;;;3.33;;
25721;SDS011;13578;53.450;15.496;2023-04-06T15:35:12;9.85;;;3.72;;
25721;SDS011;13578;53.450;15.496;2023-04-06T15:38:13;17.67;;;4.18;;
25721;SDS011;13578;53.450;15.496;2023-04-06T15:41:14;8.52;;;3.58;;
25721;SDS011;13578;53.450;15.496;2023-04-06T15:44:14;4.28;;;3.20;;
25721;SDS011;13578;53.450;15.496;2023-04-06T15:47:15;8.10;;;3.22;;
25721;SDS011;13578;53.450;15.496;2023-04-06T15:50:16;8.60;;;3.15;;
25721;SDS011;13578;53.450;15.496;2023-04-06T15:53:17;8.23;;;4.22;;
25721;SDS011;13578;53.450;15.496;2023-04-06T15:56:18;7.68;;;3.67;;
25721;SDS011;13578;53.450;15.496;2023-04-06T15:59:18;5.57;;;3.08;;
25721;SDS011;13578;53.450;15.496;2023-04-06T16:02:19;8.20;;;3.88;;
25721;SDS011;13578;53.450;15.496;2023-04-06T16:05:22;7.13;;;3.30;;
25721;SDS011;13578;53.450;15.496;2023-04-06T16:08:23;8.48;;;3.83;;
25721;SDS011;13578;53.450;15.496;2023-04-06T16:11:23;7.32;;;3.83;;
25721;SDS011;13578;53.450;15.496;2023-04-06T16:14:24;5.18;;;3.65;;
25721;SDS011;13578;53.450;15.496;2023-04-06T16:17:25;6.20;;;3.30;;
25721;SDS011;13578;53.450;15.496;2023-04-06T16:20:26;6.80;;;3.50;;
25721;SDS011;13578;53.450;15.496;2023-04-06T16:23:27;5.43;;;3.38;;
25721;SDS011;13578;53.450;15.496;2023-04-06T16:26:28;7.28;;;3.70;;
25721;SDS011;13578;53.450;15.496;2023-04-06T16:29:28;4.88;;;2.90;;
25721;SDS011;13578;53.450;15.496;2023-04-06T16:32:32;5.03;;;3.15;;
25721;SDS011;13578;53.450;15.496;2023-04-06T16:35:32;5.95;;;3.40;;
25721;SDS011;13578;53.450;15.496;2023-04-06T16:38:33;10.88;;;3.50;;
25721;SDS011;13578;53.450;15.496;2023-04-06T16:41:34;6.85;;;3.08;;
25721;SDS011;13578;53.450;15.496;2023-04-06T16:44:35;34.78;;;4.68;;
25721;SDS011;13578;53.450;15.496;2023-04-06T16:47:36;7.95;;;3.65;;
25721;SDS011;13578;53.450;15.496;2023-04-06T16:50:37;8.30;;;3.47;;
25721;SDS011;13578;53.450;15.496;2023-04-06T16:53:38;6.03;;;3.15;;
25721;SDS011;13578;53.450;15.496;2023-04-06T16:56:38;5.13;;;2.97;;
25721;SDS011;13578;53.450;15.496;2023-04-06T16:59:39;5.95;;;3.28;;
25721;SDS011;13578;53.450;15.496;2023-04-06T17:02:39;6.78;;;3.08;;
25721;SDS011;13578;53.450;15.496;2023-04-06T17:05:40;3.83;;;3.15;;
25721;SDS011;13578;53.450;15.496;2023-04-06T17:08:41;18.60;;;3.53;;
25721;SDS011;13578;53.450;15.496;2023-04-06T17:11:43;5.22;;;3.30;;
25721;SDS011;13578;53.450;15.496;2023-04-06T17:14:43;5.45;;;3.30;;
25721;SDS011;13578;53.450;15.496;2023-04-06T17:17:44;5.80;;;3.08;;
25721;SDS011;13578;53.450;15.496;2023-04-06T17:20:45;5.75;;;3.30;;
25721;SDS011;13578;53.450;15.496;2023-04-06T17:23:46;4.75;;;3.03;;
25721;SDS011;13578;53.450;15.496;2023-04-06T17:26:47;4.97;;;3.50;;
25721;SDS011;13578;53.450;15.496;2023-04-06T17:29:48;5.22;;;3.55;;
25721;SDS011;13578;53.450;15.496;2023-04-06T17:32:49;11.90;;;3.45;;
25721;SDS011;13578;53.450;15.496;2023-04-06T17:35:50;5.07;;;3.90;;
25721;SDS011;13578;53.450;15.496;2023-04-06T17:38:51;6.25;;;3.92;;
25721;SDS011;13578;53.450;15.496;2023-04-06T17:41:52;6.78;;;4.00;;
25721;SDS011;13578;53.450;15.496;2023-04-06T17:44:53;8.13;;;4.40;;
25721;SDS011;13578;53.450;15.496;2023-04-06T17:47:54;5.30;;;3.97;;